TimeCDT,TemperatureF,Dew PointF,Humidity,Sea Level PressureIn,VisibilityMPH,Wind Direction,Wind SpeedMPH,Gust SpeedMPH,PrecipitationIn,Events,Conditions,WindDirDegrees,DateUTC
12:53 AM,73.0,69.1,87,30.09,10.0,SSE,5.8,-,N/A,,Clear,150,2012-10-05 05:53:00
1:53 AM,72.0,69.1,91,30.08,10.0,SSE,4.6,-,N/A,,Clear,160,2012-10-05 06:53:00
2:53 AM,71.6,69.8,94,30.09,10.0,SSE,3.5,-,N/A,,Clear,150,2012-10-05 07:53:00
3:53 AM,71.1,69.1,93,30.07,10.0,Calm,Calm,-,N/A,,Clear,0,2012-10-05 08:53:00
4:53 AM,70.0,68.0,93,30.06,9.0,SE,3.5,-,N/A,,Clear,130,2012-10-05 09:53:00
5:23 AM,69.8,69.8,100,30.09,8.0,SE,4.6,-,N/A,,Mostly Cloudy,130,2012-10-05 10:23:00
5:50 AM,69.8,69.8,100,30.09,8.0,SE,3.5,-,N/A,,Scattered Clouds,140,2012-10-05 10:50:00
5:53 AM,70.0,69.1,97,30.08,8.0,Calm,Calm,-,N/A,,Scattered Clouds,0,2012-10-05 10:53:00
6:41 AM,71.6,69.8,94,30.11,9.0,SE,4.6,-,N/A,,Mostly Cloudy,130,2012-10-05 11:41:00
6:53 AM,71.1,69.1,93,30.10,8.0,SE,4.6,-,N/A,,Overcast,130,2012-10-05 11:53:00
7:53 AM,71.1,69.1,93,30.10,7.0,SE,4.6,-,N/A,,Mostly Cloudy,130,2012-10-05 12:53:00
8:00 AM,71.6,69.8,94,30.11,7.0,ESE,4.6,-,N/A,,Mostly Cloudy,120,2012-10-05 13:00:00
8:53 AM,73.0,70.0,90,30.10,10.0,SSE,8.1,-,N/A,,Partly Cloudy,150,2012-10-05 13:53:00
9:18 AM,75.2,69.8,83,30.11,10.0,SSE,6.9,-,N/A,,Mostly Cloudy,160,2012-10-05 14:18:00
9:38 AM,77.0,69.8,78,30.11,10.0,South,9.2,-,N/A,,Scattered Clouds,170,2012-10-05 14:38:00
9:53 AM,78.1,70.0,76,30.10,10.0,SSE,10.4,-,N/A,,Partly Cloudy,160,2012-10-05 14:53:00
10:53 AM,81.0,70.0,69,30.10,10.0,SSE,9.2,-,N/A,,Mostly Cloudy,160,2012-10-05 15:53:00
11:07 AM,80.6,69.8,70,30.11,10.0,SSW,6.9,-,N/A,,Mostly Cloudy,200,2012-10-05 16:07:00
11:32 AM,82.4,69.8,66,30.11,10.0,SSW,11.5,-,N/A,,Mostly Cloudy,200,2012-10-05 16:32:00
11:53 AM,82.0,68.0,62,30.09,10.0,SSW,6.9,-,N/A,,Scattered Clouds,210,2012-10-05 16:53:00
12:53 PM,84.9,68.0,57,30.07,10.0,SW,9.2,-,N/A,,Scattered Clouds,220,2012-10-05 17:53:00
1:53 PM,87.1,66.9,51,30.04,10.0,South,12.7,17.3,N/A,,Partly Cloudy,170,2012-10-05 18:53:00
2:53 PM,88.0,66.0,48,30.00,10.0,South,10.4,-,N/A,,Clear,180,2012-10-05 19:53:00
3:53 PM,88.0,66.0,48,29.97,10.0,South,13.8,-,N/A,,Clear,170,2012-10-05 20:53:00
4:53 PM,89.1,66.0,46,29.96,10.0,South,10.4,-,N/A,,Clear,170,2012-10-05 21:53:00
5:53 PM,88.0,66.0,48,29.95,10.0,South,10.4,-,N/A,,Clear,170,2012-10-05 22:53:00
6:53 PM,84.0,66.0,55,29.96,10.0,SSE,6.9,-,N/A,,Clear,160,2012-10-05 23:53:00
7:53 PM,80.1,66.9,64,29.96,10.0,SSE,5.8,-,N/A,,Clear,160,2012-10-06 00:53:00
8:53 PM,78.1,66.9,68,29.97,10.0,SSE,4.6,-,N/A,,Clear,160,2012-10-06 01:53:00
9:53 PM,77.0,66.0,69,29.98,10.0,South,5.8,-,N/A,,Clear,170,2012-10-06 02:53:00
10:53 PM,75.9,66.9,74,29.99,10.0,South,4.6,-,N/A,,Clear,170,2012-10-06 03:53:00
11:53 PM,75.0,66.9,76,29.99,10.0,Calm,Calm,-,N/A,,Clear,0,2012-10-06 04:53:00